Time;durP1;ratioP1;P1;durP2;ratioP2;P2;SDS_P1;SDS_P2;PMS_P1;PMS_P2;Temp;Humidity;BMP_temperature;BMP_pressure;BME280_temperature;BME280_humidity;BME280_pressure;Samples;Min_cycle;Max_cycle;Signal;HPM_P1;HPM_P2
2022/04/12 00:00:59;;;;;;;;;;;;;;;;;;5017483;28;19990;-72
2022/04/12 00:03:25;;;;;;;;;;;;;;;;;;5019386;28;19925;-72
2022/04/12 00:05:53;;;;;;;;;;;;;;;;;;5010774;28;20060;-72
2022/04/12 00:08:20;;;;;;;;;;;;;;;;;;5018661;28;19947;-72
2022/04/12 00:10:47;;;;;;;;;;;;;;;;;;5020880;28;19936;-71
2022/04/12 00:13:14;;;;;;;;;;;;;;;;;;5019975;28;19969;-71
2022/04/12 00:15:41;;;;;;;;;;;;;;;;;;5019651;28;19936;-71
2022/04/12 00:20:54;;;;;;;;;;;;;;;;;;5018143;28;20382;-71
2022/04/12 00:23:21;;;;;;;;;;;;;;;;;;5017581;28;19929;-72
2022/04/12 00:25:48;;;;;;;;;;;;;;;;;;5016935;28;20015;-71
2022/04/12 00:28:15;;;;;;;;;;;;;;;;;;5014949;28;20013;-72
2022/04/12 00:30:41;;;;;;;;;;;;;;;;;;5018130;28;20388;-72
2022/04/12 00:33:08;;;;;;;;;;;;;;;;;;5025018;27;19933;-71
2022/04/12 00:35:35;;;;;;;;;;;;;;;;;;5023158;28;20391;-72
2022/04/12 00:38:13;;;;;;;;;;;;;;;;;;5019678;28;20388;-72
2022/04/12 00:40:40;;;;;;;;;;;;;;;;;;5017135;28;19926;-72
2022/04/12 00:43:07;;;;;;;;;;;;;;;;;;5018376;28;19932;-71
2022/04/12 00:45:34;;;;;;;;;;;;;;;;;;5012906;28;19929;-72
2022/04/12 00:48:01;;;;;;;;;;;;;;;;;;5014485;28;19933;-72
2022/04/12 00:50:29;;;;;;;;;;;;;;;;;;5014601;28;19932;-72
2022/04/12 00:52:55;;;;;;;;;;;;;;;;;;5023270;28;19929;-71
2022/04/12 00:55:22;;;;;;;;;;;;;;;;;;5020767;28;19925;-71
2022/04/12 00:57:51;;;;;;;;;;;;;;;;;;5018624;28;19925;-72
2022/04/12 01:00:18;;;;;;;;;;;;;;;;;;5014861;28;19925;-72
2022/04/12 01:02:45;;;;;;;;;;;;;;;;;;5018784;28;19925;-72
2022/04/12 01:05:12;;;;;;;;;;;;;;;;;;5021931;28;19933;-72
2022/04/12 01:07:39;;;;;;;;;;;;;;;;;;5018050;28;19939;-71
2022/04/12 01:10:06;;;;;;;;;;;;;;;;;;5016142;28;19933;-71
2022/04/12 01:12:38;;;;;;;;;;;;;;;;;;5017591;28;19932;-71
2022/04/12 01:17:58;;;;;;;;;;;;;;;;;;5036585;28;19929;-71
2022/04/12 01:20:29;;;;;;;;;;;;;;;;;;5015294;28;20013;-71
2022/04/12 01:22:56;;;;;;;;;;;;;;;;;;5013200;28;19932;-72
2022/04/12 01:25:23;;;;;;;;;;;;;;;;;;5022770;28;19955;-72
2022/04/12 01:27:50;;;;;;;;;;;;;;;;;;5020026;28;19925;-71
2022/04/12 01:30:17;;;;;;;;;;;;;;;;;;5021865;28;19933;-71
2022/04/12 01:32:44;;;;;;;;;;;;;;;;;;5016017;28;20140;-71
2022/04/12 01:35:11;;;;;;;;;;;;;;;;;;5018216;28;20391;-71
2022/04/12 01:37:38;;;;;;;;;;;;;;;;;;5019103;28;19933;-73
2022/04/12 01:40:05;;;;;;;;;;;;;;;;;;5014743;28;19925;-72
2022/04/12 01:42:32;;;;;;;;;;;;;;;;;;5014499;28;19926;-71
2022/04/12 01:44:59;;;;;;;;;;;;;;;;;;5018530;28;19929;-71
2022/04/12 01:47:26;;;;;;;;;;;;;;;;;;5020769;28;19930;-71
2022/04/12 01:49:56;;;;;;;;;;;;;;;;;;5025205;28;19932;-70
2022/04/12 01:52:23;;;;;;;;;;;;;;;;;;5023270;28;19996;-71
2022/04/12 01:54:50;;;;;;;;;;;;;;;;;;5021018;28;19932;-70
2022/04/12 01:57:17;;;;;;;;;;;;;;;;;;5018684;28;20284;-72
2022/04/12 01:59:44;;;;;;;;;;;;;;;;;;5012250;28;19932;-71
2022/04/12 02:02:11;;;;;;;;;;;;;;;;;;5017455;28;19929;-72
2022/04/12 02:04:38;;;;;;;;;;;;;;;;;;5018537;28;19929;-71
2022/04/12 02:07:05;;;;;;;;;;;;;;;;;;5021040;28;19988;-72
2022/04/12 02:09:32;;;;;;;;;;;;;;;;;;5010609;28;20011;-72
2022/04/12 02:11:59;;;;;;;;;;;;;;;;;;5010938;28;19975;-72
2022/04/12 02:14:26;;;;;;;;;;;;;;;;;;5018472;28;19925;-72
2022/04/12 02:16:52;;;;;;;;;;;;;;;;;;5009981;28;19926;-71
2022/04/12 02:19:19;;;;;;;;;;;;;;;;;;5013069;28;19933;-71
2022/04/12 02:21:46;;;;;;;;;;;;;;;;;;5014253;28;19933;-71
2022/04/12 02:24:13;;;;;;;;;;;;;;;;;;5011626;28;19925;-72
2022/04/12 02:26:40;;;;;;;;;;;;;;;;;;5016257;28;19947;-70
2022/04/12 02:29:07;;;;;;;;;;;;;;;;;;5015256;28;19925;-71
2022/04/12 02:31:34;;;;;;;;;;;;;;;;;;5012581;28;19929;-71
2022/04/12 02:34:01;;;;;;;;;;;;;;;;;;5014978;28;19926;-71
2022/04/12 02:36:28;;;;;;;;;;;;;;;;;;5017202;28;20023;-71
2022/04/12 02:38:55;;;;;;;;;;;;;;;;;;5017566;28;19926;-71
2022/04/12 02:41:22;;;;;;;;;;;;;;;;;;5010026;28;19925;-71
2022/04/12 02:43:49;;;;;;;;;;;;;;;;;;5017638;28;19960;-71
2022/04/12 02:46:16;;;;;;;;;;;;;;;;;;5013776;28;19940;-71
2022/04/12 02:48:43;;;;;;;;;;;;;;;;;;5012710;28;19948;-71
2022/04/12 02:51:10;;;;;;;;;;;;;;;;;;5012181;28;19975;-71
2022/04/12 02:53:37;;;;;;;;;;;;;;;;;;5011196;28;19929;-71
2022/04/12 02:56:04;;;;;;;;;;;;;;;;;;5014920;28;20208;-71
2022/04/12 02:58:31;;;;;;;;;;;;;;;;;;5012461;28;20403;-71
2022/04/12 03:00:58;;;;;;;;;;;;;;;;;;5010096;28;19933;-71
2022/04/12 03:03:25;;;;;;;;;;;;;;;;;;5012245;28;19925;-71
2022/04/12 03:05:52;;;;;;;;;;;;;;;;;;5010730;28;20287;-71
2022/04/12 03:08:19;;;;;;;;;;;;;;;;;;5013499;28;19940;-71
2022/04/12 03:10:46;;;;;;;;;;;;;;;;;;5018415;28;20014;-71
2022/04/12 03:13:13;;;;;;;;;;;;;;;;;;5010686;28;19926;-72
2022/04/12 03:15:40;;;;;;;;;;;;;;;;;;5009969;28;19930;-71
2022/04/12 03:18:08;;;;;;;;;;;;;;;;;;5010199;28;20024;-71
2022/04/12 03:20:35;;;;;;;;;;;;;;;;;;5016820;28;19925;-70
2022/04/12 03:23:02;;;;;;;;;;;;;;;;;;5011583;28;19926;-70
2022/04/12 03:25:29;;;;;;;;;;;;;;;;;;5021859;28;19925;-71
2022/04/12 03:27:56;;;;;;;;;;;;;;;;;;5020055;28;20407;-70
2022/04/12 03:30:23;;;;;;;;;;;;;;;;;;5007305;28;19929;-71
2022/04/12 03:32:52;;;;;;;;;;;;;;;;;;5021291;28;20475;-70
2022/04/12 03:35:21;;;;;;;;;;;;;;;;;;5018637;28;19949;-70
2022/04/12 03:37:48;;;;;;;;;;;;;;;;;;5011892;28;19926;-71
2022/04/12 03:40:15;;;;;;;;;;;;;;;;;;5013223;28;19926;-71
2022/04/12 03:42:42;;;;;;;;;;;;;;;;;;5010140;28;19976;-71
2022/04/12 03:45:09;;;;;;;;;;;;;;;;;;5019977;28;19932;-72
2022/04/12 03:47:36;;;;;;;;;;;;;;;;;;5015712;28;19929;-71
2022/04/12 03:50:04;;;;;;;;;;;;;;;;;;5012975;27;19934;-71
2022/04/12 03:52:31;;;;;;;;;;;;;;;;;;5019123;28;19925;-71
2022/04/12 03:54:58;;;;;;;;;;;;;;;;;;5020411;28;19932;-72
2022/04/12 03:57:25;;;;;;;;;;;;;;;;;;5025297;28;19926;-72
2022/04/12 03:59:52;;;;;;;;;;;;;;;;;;5024661;28;20279;-71
2022/04/12 04:02:20;;;;;;;;;;;;;;;;;;5019506;28;19925;-71
2022/04/12 04:04:47;;;;;;;;;;;;;;;;;;5013018;28;20296;-71
2022/04/12 04:07:14;;;;;;;;;;;;;;;;;;5016545;28;19925;-71
2022/04/12 04:09:41;;;;;;;;;;;;;;;;;;5020411;28;19932;-71
2022/04/12 04:12:08;;;;;;;;;;;;;;;;;;5016685;28;19933;-71
2022/04/12 04:14:35;;;;;;;;;;;;;;;;;;5017776;28;19926;-70
2022/04/12 04:17:02;;;;;;;;;;;;;;;;;;5016703;28;19933;-71
2022/04/12 04:19:29;;;;;;;;;;;;;;;;;;5014827;28;19925;-71
2022/04/12 04:21:56;;;;;;;;;;;;;;;;;;5018307;28;19940;-72
2022/04/12 04:24:24;;;;;;;;;;;;;;;;;;5016222;28;20334;-72
2022/04/12 04:26:55;;;;;;;;;;;;;;;;;;5022227;28;19925;-72
2022/04/12 04:29:22;;;;;;;;;;;;;;;;;;5016157;28;19932;-72
2022/04/12 04:31:49;;;;;;;;;;;;;;;;;;5025510;28;19929;-72
2022/04/12 04:34:16;;;;;;;;;;;;;;;;;;5020537;28;19925;-73
2022/04/12 04:36:43;;;;;;;;;;;;;;;;;;5022964;27;20383;-73
2022/04/12 04:39:10;;;;;;;;;;;;;;;;;;5023887;27;19933;-73
2022/04/12 04:41:36;;;;;;;;;;;;;;;;;;5021386;28;19933;-73
2022/04/12 04:44:03;;;;;;;;;;;;;;;;;;5013553;28;19931;-73
2022/04/12 04:46:30;;;;;;;;;;;;;;;;;;5014690;28;19940;-73
2022/04/12 04:48:57;;;;;;;;;;;;;;;;;;5015645;28;19929;-72
2022/04/12 04:51:24;;;;;;;;;;;;;;;;;;5016149;28;19992;-72
2022/04/12 04:53:58;;;;;;;;;;;;;;;;;;5011646;28;20036;-72
2022/04/12 04:56:25;;;;;;;;;;;;;;;;;;5020586;28;20125;-72
2022/04/12 04:58:52;;;;;;;;;;;;;;;;;;5019120;28;20016;-71
2022/04/12 05:01:20;;;;;;;;;;;;;;;;;;5017709;28;20410;-72
2022/04/12 05:03:47;;;;;;;;;;;;;;;;;;5012924;28;20454;-71
2022/04/12 05:06:14;;;;;;;;;;;;;;;;;;5023049;27;19925;-73
2022/04/12 05:08:41;;;;;;;;;;;;;;;;;;5020898;28;20328;-71
2022/04/12 05:11:08;;;;;;;;;;;;;;;;;;5025423;28;21894;-73
2022/04/12 05:13:35;;;;;;;;;;;;;;;;;;5012222;28;19926;-74
2022/04/12 05:16:02;;;;;;;;;;;;;;;;;;5015546;28;19953;-72
2022/04/12 05:18:29;;;;;;;;;;;;;;;;;;5022786;28;19932;-72
2022/04/12 05:20:56;;;;;;;;;;;;;;;;;;5013477;27;20437;-73
2022/04/12 05:23:23;;;;;;;;;;;;;;;;;;5013049;28;20391;-73
2022/04/12 05:25:53;;;;;;;;;;;;;;;;;;5017733;28;19929;-73
2022/04/12 05:28:20;;;;;;;;;;;;;;;;;;5021261;28;19933;-72
2022/04/12 05:30:47;;;;;;;;;;;;;;;;;;5020443;28;20368;-71
2022/04/12 05:33:14;;;;;;;;;;;;;;;;;;5017109;28;19925;-71
2022/04/12 05:35:41;;;;;;;;;;;;;;;;;;5010860;28;19932;-73
2022/04/12 05:38:08;;;;;;;;;;;;;;;;;;5018526;28;19926;-71
2022/04/12 05:40:38;;;;;;;;;;;;;;;;;;5015726;28;19925;-71
2022/04/12 05:43:06;;;;;;;;;;;;;;;;;;5018522;28;19975;-71
2022/04/12 05:45:33;;;;;;;;;;;;;;;;;;5012773;28;19933;-71
2022/04/12 05:48:00;;;;;;;;;;;;;;;;;;5022722;28;19925;-72
2022/04/12 05:50:27;;;;;;;;;;;;;;;;;;5012101;28;19933;-71
2022/04/12 05:52:54;;;;;;;;;;;;;;;;;;5009928;28;20992;-71
2022/04/12 05:55:22;;;;;;;;;;;;;;;;;;5016125;28;20379;-71
2022/04/12 05:57:50;;;;;;;;;;;;;;;;;;5015183;28;20384;-72
2022/04/12 06:00:18;;;;;;;;;;;;;;;;;;5017850;28;20277;-71
2022/04/12 06:02:45;;;;;;;;;;;;;;;;;;5013819;28;20048;-71
2022/04/12 06:05:13;;;;;;;;;;;;;;;;;;5022553;27;19935;-71
2022/04/12 06:07:40;;;;;;;;;;;;;;;;;;5027034;27;19981;-72
2022/04/12 06:10:07;;;;;;;;;;;;;;;;;;5028685;27;19933;-72
2022/04/12 06:12:34;;;;;;;;;;;;;;;;;;5015282;28;19977;-72
2022/04/12 06:15:01;;;;;;;;;;;;;;;;;;5035113;27;20656;-73
2022/04/12 06:17:28;;;;;;;;;;;;;;;;;;5008977;28;19932;-71
2022/04/12 06:19:58;;;;;;;;;;;;;;;;;;5017065;28;19932;-72
2022/04/12 06:22:25;;;;;;;;;;;;;;;;;;5009585;28;19927;-71
2022/04/12 06:24:52;;;;;;;;;;;;;;;;;;5017284;27;20012;-72
2022/04/12 06:27:19;;;;;;;;;;;;;;;;;;5009191;28;19931;-72
2022/04/12 06:29:46;;;;;;;;;;;;;;;;;;5017083;28;20312;-72
2022/04/12 06:32:12;;;;;;;;;;;;;;;;;;5018919;28;19925;-72
2022/04/12 06:34:39;;;;;;;;;;;;;;;;;;5012232;28;20419;-72
2022/04/12 06:37:06;;;;;;;;;;;;;;;;;;5016780;28;19929;-72
2022/04/12 06:39:33;;;;;;;;;;;;;;;;;;5018826;28;19925;-71
2022/04/12 06:42:00;;;;;;;;;;;;;;;;;;5019088;28;19939;-71
2022/04/12 06:44:32;;;;;;;;;;;;;;;;;;5023037;28;19926;-72
2022/04/12 06:46:59;;;;;;;;;;;;;;;;;;5011855;28;19947;-76
2022/04/12 06:49:26;;;;;;;;;;;;;;;;;;5025802;28;19925;-74
2022/04/12 06:51:53;;;;;;;;;;;;;;;;;;5032243;28;19969;-73
2022/04/12 06:54:20;;;;;;;;;;;;;;;;;;5017488;28;20368;-73
2022/04/12 06:56:47;;;;;;;;;;;;;;;;;;5011956;28;20388;-72
2022/04/12 06:59:15;;;;;;;;;;;;;;;;;;5018597;28;19925;-72
2022/04/12 07:01:42;;;;;;;;;;;;;;;;;;5015237;28;19929;-72
2022/04/12 07:04:09;;;;;;;;;;;;;;;;;;5016887;28;19983;-72
2022/04/12 07:06:36;;;;;;;;;;;;;;;;;;5016057;28;19932;-72
2022/04/12 07:09:05;;;;;;;;;;;;;;;;;;5018749;28;19931;-72
2022/04/12 07:11:32;;;;;;;;;;;;;;;;;;5012475;28;19928;-72
2022/04/12 07:13:59;;;;;;;;;;;;;;;;;;5011254;28;19933;-72
2022/04/12 07:16:26;;;;;;;;;;;;;;;;;;5016827;28;19936;-72
2022/04/12 07:18:53;;;;;;;;;;;;;;;;;;5020876;27;20017;-72
2022/04/12 07:21:21;;;;;;;;;;;;;;;;;;5018801;28;20012;-72
2022/04/12 07:23:50;;;;;;;;;;;;;;;;;;5021076;27;19933;-72
2022/04/12 07:26:17;;;;;;;;;;;;;;;;;;5020427;28;20419;-73
2022/04/12 07:28:44;;;;;;;;;;;;;;;;;;5020479;27;19969;-72
2022/04/12 07:31:11;;;;;;;;;;;;;;;;;;5019262;28;19926;-71
2022/04/12 07:33:38;;;;;;;;;;;;;;;;;;5021229;27;19933;-71
2022/04/12 07:36:05;;;;;;;;;;;;;;;;;;5016246;28;19925;-77
2022/04/12 07:38:32;;;;;;;;;;;;;;;;;;5020548;28;19933;-76
2022/04/12 07:40:59;;;;;;;;;;;;;;;;;;5039083;27;19925;-77
2022/04/12 07:43:26;;;;;;;;;;;;;;;;;;5016165;28;20015;-76
2022/04/12 07:45:53;;;;;;;;;;;;;;;;;;5018821;28;19972;-77
2022/04/12 07:48:20;;;;;;;;;;;;;;;;;;5015390;28;19946;-74
2022/04/12 07:50:47;;;;;;;;;;;;;;;;;;5025947;27;20021;-75
2022/04/12 07:53:14;;;;;;;;;;;;;;;;;;5016716;28;19925;-75
2022/04/12 07:55:41;;;;;;;;;;;;;;;;;;5019588;28;19935;-75
2022/04/12 07:58:08;;;;;;;;;;;;;;;;;;5015522;28;19929;-74
2022/04/12 08:00:35;;;;;;;;;;;;;;;;;;5016214;27;19925;-75
2022/04/12 08:03:02;;;;;;;;;;;;;;;;;;5012211;28;19929;-74
2022/04/12 08:05:29;;;;;;;;;;;;;;;;;;5016240;28;19925;-74
2022/04/12 08:07:56;;;;;;;;;;;;;;;;;;5016532;27;20011;-75
2022/04/12 08:10:24;;;;;;;;;;;;;;;;;;5020629;28;19926;-76
2022/04/12 08:12:54;;;;;;;;;;;;;;;;;;5014843;28;20025;-76
2022/04/12 08:15:22;;;;;;;;;;;;;;;;;;5019902;28;19929;-78
2022/04/12 08:17:49;;;;;;;;;;;;;;;;;;5010255;23;19995;-77
2022/04/12 08:20:16;;;;;;;;;;;;;;;;;;4984200;28;20304;-77
2022/04/12 08:22:43;;;;;;;;;;;;;;;;;;4993925;28;20887;-77
2022/04/12 08:25:10;;;;;;;;;;;;;;;;;;4988639;28;19975;-77
2022/04/12 08:27:37;;;;;;;;;;;;;;;;;;5003833;28;19933;-76
2022/04/12 08:30:04;;;;;;;;;;;;;;;;;;4984660;28;19940;-75
2022/04/12 08:32:31;;;;;;;;;;;;;;;;;;4987544;28;19934;-76
2022/04/12 08:34:58;;;;;;;;;;;;;;;;;;5002858;28;19934;-76
2022/04/12 08:37:25;;;;;;;;;;;;;;;;;;4997789;28;20005;-76
2022/04/12 08:39:52;;;;;;;;;;;;;;;;;;4994582;28;19926;-76
2022/04/12 08:42:19;;;;;;;;;;;;;;;;;;4993770;28;19988;-77
2022/04/12 08:44:46;;;;;;;;;;;;;;;;;;4999412;28;19926;-74
2022/04/12 08:47:13;;;;;;;;;;;;;;;;;;4979987;28;19926;-76
2022/04/12 08:49:40;;;;;;;;;;;;;;;;;;4979011;28;20793;-75
2022/04/12 08:52:10;;;;;;;;;;;;;;;;;;4984562;28;19961;-73
2022/04/12 08:54:37;;;;;;;;;;;;;;;;;;4977224;28;19929;-78
2022/04/12 08:57:05;;;;;;;;;;;;;;;;;;4984136;28;19930;-77
2022/04/12 08:59:32;;;;;;;;;;;;;;;;;;4980196;28;19926;-75
2022/04/12 09:01:59;;;;;;;;;;;;;;;;;;4976440;28;19932;-76
2022/04/12 09:04:27;;;;;;;;;;;;;;;;;;4988328;28;19930;-76
2022/04/12 09:06:54;;;;;;;;;;;;;;;;;;4984268;28;20381;-76
2022/04/12 09:09:21;;;;;;;;;;;;;;;;;;4987203;28;20016;-77
2022/04/12 09:11:48;;;;;;;;;;;;;;;;;;4990964;28;19926;-76
2022/04/12 09:14:15;;;;;;;;;;;;;;;;;;4981195;28;19933;-76
2022/04/12 09:16:42;;;;;;;;;;;;;;;;;;4989368;28;19926;-75
2022/04/12 09:19:08;;;;;;;;;;;;;;;;;;4989113;28;19926;-75
2022/04/12 09:21:35;;;;;;;;;;;;;;;;;;4984119;28;19926;-77
2022/04/12 09:24:04;;;;;;;;;;;;;;;;;;4990600;28;19949;-76
2022/04/12 09:26:31;;;;;;;;;;;;;;;;;;4977122;28;19930;-76
2022/04/12 09:28:58;;;;;;;;;;;;;;;;;;4996116;28;20427;-80
2022/04/12 09:31:25;;;;;;;;;;;;;;;;;;4989592;28;19934;-78
2022/04/12 09:33:52;;;;;;;;;;;;;;;;;;4988081;28;19932;-77
2022/04/12 09:36:18;;;;;;;;;;;;;;;;;;4978911;28;19995;-77
2022/04/12 09:38:45;;;;;;;;;;;;;;;;;;4995290;28;19930;-74
2022/04/12 09:41:12;;;;;;;;;;;;;;;;;;4991239;28;19933;-76
2022/04/12 09:43:39;;;;;;;;;;;;;;;;;;4984366;28;19933;-77
2022/04/12 09:46:06;;;;;;;;;;;;;;;;;;4984405;28;19926;-76
2022/04/12 09:48:34;;;;;;;;;;;;;;;;;;4978658;28;19950;-77
2022/04/12 09:51:01;;;;;;;;;;;;;;;;;;4984280;28;20024;-77
2022/04/12 09:53:28;;;;;;;;;;;;;;;;;;4984733;28;19940;-77
2022/04/12 09:55:55;;;;;;;;;;;;;;;;;;4978561;28;20010;-77
2022/04/12 09:58:22;;;;;;;;;;;;;;;;;;4998557;28;19936;-77
2022/04/12 10:00:49;;;;;;;;;;;;;;;;;;4983675;28;20432;-76
2022/04/12 10:03:16;;;;;;;;;;;;;;;;;;4993758;28;19933;-75
2022/04/12 10:05:44;;;;;;;;;;;22.60;52.10;;;;;;4980700;28;20559;-76
2022/04/12 10:08:12;;;;;;;;;;;22.00;43.60;;;;;;4983142;28;19932;-76
2022/04/12 10:10:41;;;;;;;;;;;21.90;45.20;;;;;;4992402;28;20450;-78
2022/04/12 10:13:09;;;;;;;;;;;21.90;45.80;;;;;;4985066;28;20036;-77
2022/04/12 10:15:36;;;;;;;;;;;21.40;45.40;;;;;;4984671;28;20016;-76
2022/04/12 10:18:03;;;;;;;;;;;21.30;46.80;;;;;;4978116;28;19965;-77
2022/04/12 10:20:30;;;;;;;;;;;21.10;47.50;;;;;;4979957;28;19933;-76
2022/04/12 10:22:59;;;;;;;;;;;20.80;46.80;;;;;;4986874;28;20013;-75
2022/04/12 10:25:27;;;;;;;;;;;20.80;47.60;;;;;;4986455;28;19934;-76
2022/04/12 10:27:56;;;;;;;;;;;21.00;47.00;;;;;;4986409;28;19983;-76
2022/04/12 10:30:26;;;;;;;;;;;20.80;47.40;;;;;;4997837;28;19930;-76
2022/04/12 10:33:02;;;;;;;;;;;20.70;47.80;;;;;;4991490;28;19933;-74
2022/04/12 10:35:29;;;;;;;;;;;20.70;47.10;;;;;;4979019;28;20390;-75
2022/04/12 10:37:56;;;;;;;;;;;20.40;47.20;;;;;;4987189;28;19933;-74
2022/04/12 10:40:25;;;;;;;;;;;20.50;47.50;;;;;;4983379;28;19975;-76
2022/04/12 10:42:53;;;;;;;;;;;20.60;46.80;;;;;;4982954;28;19933;-77
2022/04/12 10:45:27;;;;;;;;;;;20.50;46.50;;;;;;4977124;28;19926;-77
2022/04/12 10:47:57;;;;;;;;;;;20.70;47.50;;;;;;4979992;28;19935;-78
2022/04/12 10:50:23;;;;;;;;;;;20.70;47.20;;;;;;4978417;28;19969;-76
2022/04/12 10:52:50;;;;;;;;;;;20.60;47.30;;;;;;4977677;28;19933;-76
2022/04/12 10:55:18;;;;;;;;;;;20.50;47.70;;;;;;4979169;28;20047;-75
2022/04/12 10:57:45;;;;;;;;;;;;;;;;;;4973413;28;19934;-74
2022/04/12 11:00:12;;;;;;;;;;;;;;;;;;4980812;28;20032;-75
2022/04/12 11:02:39;;;;;;;;;;;;;;;;;;4976485;28;19930;-74
2022/04/12 11:05:08;;;;;;;;;;;21.20;57.30;;;;;;4974922;28;19937;-75
2022/04/12 11:07:35;;;;;;;;;;;21.10;47.10;;;;;;4976343;28;19932;-79
2022/04/12 11:10:29;;;;;;;;;;;21.30;47.80;;;;;;4980002;28;19927;-78
2022/04/12 11:13:05;;;;;;;;;;;21.50;46.80;;;;;;4980214;28;19926;-76
2022/04/12 11:15:33;;;;;;;;;;;21.30;46.90;;;;;;4972130;28;19933;-78
2022/04/12 11:18:06;;;;;;;;;;;21.30;47.20;;;;;;4986962;28;19925;-78
2022/04/12 11:20:35;;;;;;;;;;;21.30;47.10;;;;;;4976428;28;20633;-77
2022/04/12 11:23:07;;;;;;;;;;;21.30;47.20;;;;;;4976856;28;20319;-76
2022/04/12 11:25:34;;;;;;;;;;;21.50;46.60;;;;;;4974510;28;19934;-77
2022/04/12 11:28:01;;;;;;;;;;;21.60;46.90;;;;;;4977035;28;20440;-76
2022/04/12 11:30:28;;;;;;;;;;;21.80;45.60;;;;;;4977722;28;19926;-76
2022/04/12 11:32:56;;;;;;;;;;;21.60;45.70;;;;;;4979660;28;19934;-77
2022/04/12 11:35:23;;;;;;;;;;;21.50;44.80;;;;;;4976910;28;19972;-75
2022/04/12 11:37:52;;;;;;;;;;;21.70;45.60;;;;;;4980661;28;19929;-75
2022/04/12 11:40:18;;;;;;;;;;;21.60;44.80;;;;;;4978245;28;20419;-76
2022/04/12 11:42:45;;;;;;;;;;;21.60;45.10;;;;;;4979465;28;19925;-72
2022/04/12 11:45:12;;;;;;;;;;;21.70;45.30;;;;;;4976629;28;20817;-71
2022/04/12 11:47:44;;;;;;;;;;;21.80;44.80;;;;;;4975365;28;20016;-74
2022/04/12 11:50:17;;;;;;;;;;;22.00;44.80;;;;;;4976616;28;19930;-75
2022/04/12 11:52:45;;;;;;;;;;;22.10;45.10;;;;;;4976748;28;20024;-78
2022/04/12 11:55:13;;;;;;;;;;;22.00;44.70;;;;;;4987061;28;19972;-77
2022/04/12 11:57:40;;;;;;;;;;;22.00;44.30;;;;;;4984634;28;19925;-79
2022/04/12 12:00:08;;;;;;;;;;;22.00;44.30;;;;;;4982759;28;19960;-79
2022/04/12 12:02:38;;;;;;;;;;;22.10;45.30;;;;;;4980603;28;20056;-80
2022/04/12 12:05:06;;;;;;;;;;;22.30;44.30;;;;;;4976066;28;19934;-79
2022/04/12 12:07:36;;;;;;;;;;;22.80;43.70;;;;;;4976166;28;20020;-76
2022/04/12 12:10:04;;;;;;;;;;;22.60;43.40;;;;;;4971799;28;20347;-73
2022/04/12 12:12:33;;;;;;;;;;;22.50;43.40;;;;;;4980131;28;19926;-72
2022/04/12 12:15:00;;;;;;;;;;;22.60;43.10;;;;;;4972554;28;20393;-73
2022/04/12 12:17:28;;;;;;;;;;;22.50;42.50;;;;;;4976883;28;20020;-72
2022/04/12 12:19:55;;;;;;;;;;;22.50;42.90;;;;;;4976704;28;19965;-72
2022/04/12 12:22:22;;;;;;;;;;;22.50;42.80;;;;;;4973600;28;19934;-73
2022/04/12 12:24:50;;;;;;;;;;;22.40;42.30;;;;;;4973360;28;19938;-73
2022/04/12 12:27:26;;;;;;;;;;;22.50;42.90;;;;;;4976461;28;19926;-72
2022/04/12 12:29:59;;;;;;;;;;;22.60;41.90;;;;;;4977128;28;19961;-72
2022/04/12 12:32:25;;;;;;;;;;;22.70;41.50;;;;;;4969026;28;19926;-71
2022/04/12 12:34:52;;;;;;;;;;;22.50;41.70;;;;;;4972136;28;20023;-73
2022/04/12 12:37:22;;;;;;;;;;;22.30;42.00;;;;;;4973753;28;20928;-71
2022/04/12 12:39:49;;;;;;;;;;;22.50;43.30;;;;;;4974932;28;19934;-72
2022/04/12 12:42:16;;;;;;;;;;;22.70;42.20;;;;;;4978276;28;19925;-71
2022/04/12 12:44:42;;;;;;;;;;;22.90;41.90;;;;;;4974637;28;19933;-70
2022/04/12 12:47:14;;;;;;;;;;;22.70;42.00;;;;;;4974625;28;20372;-70
2022/04/12 12:49:41;;;;;;;;;;;22.70;42.70;;;;;;4975259;28;20408;-70
2022/04/12 12:52:09;;;;;;;;;;;22.70;41.90;;;;;;4983912;28;19925;-70
2022/04/12 12:54:36;;;;;;;;;;;22.90;42.70;;;;;;4978454;28;19987;-70
2022/04/12 12:57:05;;;;;;;;;;;23.00;42.20;;;;;;4986522;28;19925;-70
2022/04/12 12:59:34;;;;;;;;;;;22.80;41.40;;;;;;4980410;28;20009;-70
2022/04/12 13:02:07;;;;;;;;;;;22.50;42.90;;;;;;4984622;28;19925;-70
2022/04/12 13:04:36;;;;;;;;;;;22.40;42.40;;;;;;4978396;28;20362;-70
2022/04/12 13:07:07;;;;;;;;;;;22.40;42.90;;;;;;4984547;28;19934;-71
2022/04/12 13:09:39;;;;;;;;;;;22.50;42.10;;;;;;4976994;28;19941;-70
2022/04/12 13:12:07;;;;;;;;;;;22.50;42.30;;;;;;4971234;28;19969;-72
2022/04/12 13:14:33;;;;;;;;;;;22.80;42.10;;;;;;4974739;28;19929;-71
2022/04/12 13:17:00;;;;;;;;;;;23.20;42.00;;;;;;4976774;28;20325;-71
2022/04/12 13:19:28;;;;;;;;;;;23.60;43.10;;;;;;4977543;28;19926;-71
2022/04/12 13:21:56;;;;;;;;;;;23.50;43.00;;;;;;4980906;28;19926;-71
2022/04/12 13:24:24;;;;;;;;;;;23.40;42.70;;;;;;4975482;28;19947;-70
2022/04/12 13:26:51;;;;;;;;;;;22.90;42.70;;;;;;4983013;28;20303;-70
2022/04/12 13:29:18;;;;;;;;;;;22.80;43.50;;;;;;4979570;28;19932;-70
2022/04/12 13:31:45;;;;;;;;;;;22.90;42.50;;;;;;4969475;28;20331;-70
2022/04/12 13:34:11;;;;;;;;;;;22.80;43.20;;;;;;4978320;28;20046;-70
2022/04/12 13:36:38;;;;;;;;;;;23.00;42.70;;;;;;4973827;28;19976;-71
2022/04/12 13:39:08;;;;;;;;;;;23.20;43.70;;;;;;4979875;28;19965;-73
2022/04/12 13:41:35;;;;;;;;;;;23.10;42.40;;;;;;4973410;28;20020;-73
2022/04/12 13:44:02;;;;;;;;;;;23.20;43.30;;;;;;4979777;28;19932;-73
2022/04/12 13:46:29;;;;;;;;;;;23.00;43.80;;;;;;4977842;28;19926;-73
2022/04/12 13:48:56;;;;;;;;;;;22.90;44.30;;;;;;4982353;28;20050;-73
2022/04/12 13:51:22;;;;;;;;;;;22.80;43.90;;;;;;4975963;28;19949;-72
2022/04/12 13:53:49;;;;;;;;;;;22.70;42.90;;;;;;4978703;28;19930;-72
2022/04/12 13:56:17;;;;;;;;;;;22.80;43.50;;;;;;5004492;28;19933;-75
2022/04/12 13:58:44;;;;;;;;;;;22.90;43.20;;;;;;4987856;28;19933;-72
2022/04/12 14:01:10;;;;;;;;;;;22.80;43.70;;;;;;4976778;28;19936;-72
2022/04/12 14:03:37;;;;;;;;;;;22.90;44.10;;;;;;4981382;28;19930;-73
2022/04/12 14:06:04;;;;;;;;;;;22.70;44.50;;;;;;4983766;28;19957;-72
2022/04/12 14:08:31;;;;;;;;;;;22.80;43.80;;;;;;4985357;28;20012;-72
2022/04/12 14:10:58;;;;;;;;;;;22.70;44.00;;;;;;4980494;28;20009;-72
2022/04/12 14:13:26;;;;;;;;;;;22.70;44.20;;;;;;4984708;28;20111;-71
2022/04/12 14:15:53;;;;;;;;;;;22.50;44.10;;;;;;4976179;28;20036;-70
2022/04/12 14:18:20;;;;;;;;;;;22.50;44.70;;;;;;4978291;28;20399;-70
2022/04/12 14:20:47;;;;;;;;;;;22.50;44.40;;;;;;4975162;28;19933;-70
2022/04/12 14:23:14;;;;;;;;;;;22.30;44.60;;;;;;4982095;28;20388;-70
2022/04/12 14:25:41;;;;;;;;;;;22.30;45.00;;;;;;4980976;28;19926;-70
2022/04/12 14:28:09;;;;;;;;;;;22.30;45.00;;;;;;4971941;28;19926;-70
2022/04/12 14:30:38;;;;;;;;;;;22.10;45.00;;;;;;4980266;28;20001;-70
2022/04/12 14:33:05;;;;;;;;;;;22.00;45.70;;;;;;4977836;28;19932;-72
2022/04/12 14:35:31;;;;;;;;;;;22.10;45.30;;;;;;4979868;28;20399;-74
2022/04/12 14:38:00;;;;;;;;;;;22.00;44.80;;;;;;4982655;28;21441;-73
2022/04/12 14:40:27;;;;;;;;;;;22.00;45.20;;;;;;4984472;28;19932;-74
2022/04/12 14:42:53;;;;;;;;;;;22.00;45.40;;;;;;4976547;28;20035;-73
2022/04/12 14:45:22;;;;;;;;;;;22.10;45.00;;;;;;4974897;28;19926;-73
2022/04/12 14:47:50;;;;;;;;;;;;;;;;;;4983304;28;19979;-72
2022/04/12 14:50:18;;;;;;;;;;;22.00;45.40;;;;;;4983372;28;20362;-72
2022/04/12 14:52:45;;;;;;;;;;;22.00;45.90;;;;;;4977873;28;19926;-73
2022/04/12 14:55:11;;;;;;;;;;;22.00;45.50;;;;;;4979168;28;19980;-72
2022/04/12 14:57:39;;;;;;;;;;;;;;;;;;4977384;28;19958;-71
2022/04/12 15:00:07;;;;;;;;;;;22.10;45.30;;;;;;4987855;28;20009;-71
2022/04/12 15:02:33;;;;;;;;;;;22.00;45.50;;;;;;4978950;28;20299;-71
2022/04/12 15:05:00;;;;;;;;;;;21.90;45.10;;;;;;4969331;28;19938;-71
2022/04/12 15:07:29;;;;;;;;;;;21.90;46.20;;;;;;4971767;28;19930;-72
2022/04/12 15:09:55;;;;;;;;;;;22.00;46.60;;;;;;4979987;28;20342;-71
2022/04/12 15:12:22;;;;;;;;;;;21.90;46.70;;;;;;4980552;28;20468;-71
2022/04/12 15:14:49;;;;;;;;;;;21.80;45.30;;;;;;4968441;28;19952;-71
2022/04/12 15:17:16;;;;;;;;;;;21.90;44.80;;;;;;4968638;28;19933;-72
2022/04/12 15:19:42;;;;;;;;;;;22.00;45.60;;;;;;4967331;28;19936;-72
2022/04/12 15:22:09;;;;;;;;;;;22.00;44.90;;;;;;4967961;28;19926;-72
2022/04/12 15:24:37;;;;;;;;;;;21.80;45.10;;;;;;4980677;28;19926;-72
2022/04/12 15:27:04;;;;;;;;;;;21.80;45.30;;;;;;4972292;28;19926;-72
2022/04/12 15:29:31;;;;;;;;;;;21.90;46.00;;;;;;4978877;28;20409;-72
2022/04/12 15:31:57;;;;;;;;;;;21.90;46.40;;;;;;4973689;28;19926;-71
2022/04/12 15:34:24;;;;;;;;;;;21.80;46.60;;;;;;4978988;28;19964;-71
2022/04/12 15:36:51;;;;;;;;;;;21.80;47.30;;;;;;4984231;28;19933;-73
2022/04/12 15:39:23;;;;;;;;;;;21.80;47.10;;;;;;4981322;28;19926;-72
2022/04/12 15:41:51;;;;;;;;;;;21.60;47.30;;;;;;4972065;28;20011;-71
2022/04/12 15:44:17;;;;;;;;;;;21.60;47.70;;;;;;4979389;28;19936;-71
2022/04/12 15:46:44;;;;;;;;;;;21.60;47.70;;;;;;4977989;28;19933;-72
2022/04/12 15:49:14;;;;;;;;;;;21.50;48.00;;;;;;4970071;28;20355;-72
2022/04/12 15:51:44;;;;;;;;;;;21.60;48.00;;;;;;4972251;28;19941;-72
2022/04/12 15:54:11;;;;;;;;;;;21.50;48.90;;;;;;4979325;28;19926;-72